^^
Datos históricos de la estación: Murcia-Puente Tocinos
Diario Informe para Enero 1, 2019 Unidades:  Ambas    Ingés   Métrico
Diario Semanal Mensual Anual
  Máxima: Mínima: Promedio:
Temperatura: 67.5 °F /  19.7 °C 38.5 °F /  3.6 °C 50.7 °F /  10.4 °C
Punto de rocio: 46.6 °F /  8.1 °C 32.4 °F /  0.2 °C 37 °F /  2.8 °C
Humedad: 84% 31% 62%
Velocidad viento: 6.4mph /  10.3km/h - 4.2mph /  6.8km/h
Racha viento: 9.2mph /  14.8km/h - -
Viento- - SSO
Presión: 30.4 in /  1030.6 hPa 30.3 in /  1027.0 hPa -
Precipitación: 0 in /  0.0 mm    
 
 
Tabla de datos para Enero 1, 2019
Hora Temperatura Punto de rocio Presión Viento Velocidad viento Racha viento Humedad Intensidad lluvia(por hora) Nubes
00:04 47.3 °F /  8.5 °C 36.9 °F /  2.7 °C 30.4in /  1029.3hPa Sur 4.7mph /  7.6km/h 8.1mph /  13km/h 67% 0in /  0.0mm
00:09 47.1 °F /  8.4 °C 36.7 °F /  2.6 °C 30.4in /  1029.3hPa Sur 5.2mph /  8.3km/h 8.1mph /  13km/h 67% 0in /  0.0mm
00:14 47.1 °F /  8.4 °C 36.7 °F /  2.6 °C 30.4in /  1029.3hPa Sur 5.4mph /  8.7km/h 8.1mph /  13km/h 67% 0in /  0.0mm
00:19 46.9 °F /  8.3 °C 36.5 °F /  2.5 °C 30.4in /  1029.3hPa Sur 5.4mph /  8.7km/h 8.1mph /  13km/h 67% 0in /  0.0mm
00:24 46.9 °F /  8.3 °C 36.5 °F /  2.5 °C 30.4in /  1029.2hPa SSO 5.4mph /  8.7km/h 8mph /  12.9km/h 67% 0in /  0.0mm
00:29 47.1 °F /  8.4 °C 36.3 °F /  2.4 °C 30.4in /  1029.2hPa SSO 5.3mph /  8.5km/h 8.1mph /  13km/h 66.1% 0in /  0.0mm
00:34 47.1 °F /  8.4 °C 36.3 °F /  2.4 °C 30.4in /  1029.2hPa SSO 5.2mph /  8.4km/h 8.1mph /  13km/h 66% 0in /  0.0mm
00:39 47.1 °F /  8.4 °C 36.3 °F /  2.4 °C 30.4in /  1029.2hPa Sur 5.2mph /  8.4km/h 8mph /  12.9km/h 66.1% 0in /  0.0mm
00:44 46.9 °F /  8.3 °C 36.5 °F /  2.5 °C 30.4in /  1029.2hPa Sur 5.2mph /  8.4km/h 7mph /  11.3km/h 67% 0in /  0.0mm
00:49 46.6 °F /  8.1 °C 36.7 °F /  2.6 °C 30.4in /  1029.2hPa SSO 5.2mph /  8.4km/h 7.6mph /  12.2km/h 68% 0in /  0.0mm
00:54 46.2 °F /  7.9 °C 36.3 °F /  2.4 °C 30.4in /  1029.2hPa SSO 5.2mph /  8.4km/h 8.1mph /  13km/h 68% 0in /  0.0mm
00:59 46 °F /  7.8 °C 36.1 °F /  2.3 °C 30.4in /  1029.2hPa Sur 4.8mph /  7.8km/h 7mph /  11.3km/h 68% 0in /  0.0mm
01:04 46 °F /  7.8 °C 35.8 °F /  2.1 °C 30.4in /  1029.2hPa Sur 4.7mph /  7.6km/h 6.4mph /  10.3km/h 67.1% 0in /  0.0mm
01:09 45.9 °F /  7.7 °C 35.6 °F /  2 °C 30.4in /  1029.2hPa Sur 4.7mph /  7.6km/h 7.4mph /  11.9km/h 67% 0in /  0.0mm
01:14 45.9 °F /  7.7 °C 35.4 °F /  1.9 °C 30.4in /  1029.2hPa Sur 4.7mph /  7.6km/h 7mph /  11.3km/h 67% 0in /  0.0mm
01:19 45.7 °F /  7.6 °C 35.8 °F /  2.1 °C 30.4in /  1029.2hPa Sur 4.2mph /  6.8km/h 6mph /  9.7km/h 67.9% 0in /  0.0mm
01:24 45.5 °F /  7.5 °C 35.6 °F /  2 °C 30.4in /  1029.2hPa SSE 4mph /  6.5km/h 6mph /  9.7km/h 68% 0in /  0.0mm
01:29 45.1 °F /  7.3 °C 35.6 °F /  2 °C 30.4in /  1029.2hPa SSE 4mph /  6.5km/h 6mph /  9.7km/h 68.7% 0in /  0.0mm
01:34 45 °F /  7.2 °C 35.8 °F /  2.1 °C 30.4in /  1029.2hPa SSE 4mph /  6.5km/h 7.4mph /  11.9km/h 69.8% 0in /  0.0mm
01:39 44.8 °F /  7.1 °C 35.6 °F /  2 °C 30.4in /  1029.2hPa SSE 4.2mph /  6.8km/h 7mph /  11.3km/h 70.4% 0in /  0.0mm
01:44 44.2 °F /  6.8 °C 35.6 °F /  2 °C 30.4in /  1029.2hPa Sur 4.3mph /  6.9km/h 7mph /  11.3km/h 71% 0in /  0.0mm
01:49 44.2 °F /  6.8 °C 35.6 °F /  2 °C 30.4in /  1029.2hPa Sur 4.9mph /  7.9km/h 7mph /  11.3km/h 71.7% 0in /  0.0mm
01:54 44.1 °F /  6.7 °C 35.6 °F /  2 °C 30.4in /  1029.1hPa Sur 5.2mph /  8.4km/h 7.4mph /  11.9km/h 72% 0in /  0.0mm
01:59 44.2 °F /  6.8 °C 35.8 °F /  2.1 °C 30.4in /  1029.1hPa Sur 5.2mph /  8.4km/h 7.4mph /  11.9km/h 72% 0in /  0.0mm
02:04 44.2 °F /  6.8 °C 35.8 °F /  2.1 °C 30.4in /  1029.1hPa Sur 5.2mph /  8.4km/h 7.4mph /  11.9km/h 71.8% 0in /  0.0mm
02:09 44.1 °F /  6.7 °C 35.6 °F /  2 °C 30.4in /  1029.1hPa Sur 5.2mph /  8.4km/h 8.1mph /  13km/h 72% 0in /  0.0mm
02:14 44.1 °F /  6.7 °C 35.6 °F /  2 °C 30.4in /  1029.1hPa Sur 5.2mph /  8.4km/h 8mph /  12.9km/h 72% 0in /  0.0mm
02:19 43.9 °F /  6.6 °C 35.8 °F /  2.1 °C 30.4in /  1029.1hPa Sur 4.7mph /  7.5km/h 7mph /  11.3km/h 72.8% 0in /  0.0mm
02:24 43.9 °F /  6.6 °C 35.8 °F /  2.1 °C 30.4in /  1029.0hPa Sur 4.3mph /  6.9km/h 7.4mph /  11.9km/h 73% 0in /  0.0mm
02:29 43.7 °F /  6.5 °C 35.6 °F /  2 °C 30.4in /  1029.0hPa Sur 4.3mph /  6.9km/h 7.4mph /  11.9km/h 73% 0in /  0.0mm
02:34 43.7 °F /  6.5 °C 35.6 °F /  2 °C 30.4in /  1029.2hPa Sur 4.3mph /  6.9km/h 7mph /  11.3km/h 73% 0in /  0.0mm
02:39 43.5 °F /  6.4 °C 35.4 °F /  1.9 °C 30.4in /  1029.2hPa Sur 4.6mph /  7.4km/h 7mph /  11.3km/h 73% 0in /  0.0mm
02:44 43.5 °F /  6.4 °C 35.4 °F /  1.9 °C 30.4in /  1029.2hPa Sur 4.7mph /  7.6km/h 7.4mph /  11.9km/h 73.2% 0in /  0.0mm
02:49 43.5 °F /  6.4 °C 35.8 °F /  2.1 °C 30.4in /  1029.3hPa Sur 4.7mph /  7.6km/h 7mph /  11.3km/h 74% 0in /  0.0mm
02:54 43.3 °F /  6.3 °C 35.6 °F /  2 °C 30.4in /  1029.3hPa Sur 4.7mph /  7.6km/h 8.7mph /  14km/h 74% 0in /  0.0mm
02:59 43.3 °F /  6.3 °C 35.4 °F /  1.9 °C 30.4in /  1029.3hPa Sur 5mph /  8.1km/h 9.2mph /  14.8km/h 73.2% 0in /  0.0mm
03:04 43.3 °F /  6.3 °C 35.2 °F /  1.8 °C 30.4in /  1029.3hPa Sur 5.2mph /  8.4km/h 9mph /  14.5km/h 73% 0in /  0.0mm
03:09 43.3 °F /  6.3 °C 35.2 °F /  1.8 °C 30.4in /  1029.3hPa Sur 5.8mph /  9.4km/h 8.1mph /  13km/h 73% 0in /  0.0mm
03:14 43.2 °F /  6.2 °C 35.1 °F /  1.7 °C 30.4in /  1029.3hPa Sur 6.2mph /  10km/h 7mph /  11.3km/h 73% 0in /  0.0mm
03:19 43.2 °F /  6.2 °C 35.1 °F /  1.7 °C 30.4in /  1029.3hPa Sur 5.2mph /  8.4km/h 7mph /  11.3km/h 73% 0in /  0.0mm
03:24 43 °F /  6.1 °C 34.9 °F /  1.6 °C 30.4in /  1029.3hPa Sur 4.7mph /  7.6km/h 7.4mph /  11.9km/h 73% 0in /  0.0mm
03:29 42.8 °F /  6 °C 35.1 °F /  1.7 °C 30.4in /  1029.3hPa SSO 5mph /  8.1km/h 7.4mph /  11.9km/h 73.9% 0in /  0.0mm
03:34 42.8 °F /  6 °C 35.1 °F /  1.7 °C 30.4in /  1029.4hPa SSO 5.2mph /  8.4km/h 7.4mph /  11.9km/h 74% 0in /  0.0mm
03:39 42.8 °F /  6 °C 35.1 °F /  1.7 °C 30.4in /  1029.4hPa Sur 5.2mph /  8.4km/h 7mph /  11.3km/h 74% 0in /  0.0mm
03:44 42.8 °F /  6 °C 34.9 °F /  1.6 °C 30.4in /  1029.4hPa Sur 5.2mph /  8.4km/h 7mph /  11.3km/h 73.2% 0in /  0.0mm
03:49 42.8 °F /  6 °C 34.7 °F /  1.5 °C 30.4in /  1029.4hPa SSO 5.2mph /  8.4km/h 8mph /  12.9km/h 73% 0in /  0.0mm
03:54 42.6 °F /  5.9 °C 34.5 °F /  1.4 °C 30.4in /  1029.4hPa SSO 5.2mph /  8.4km/h 8.1mph /  13km/h 73% 0in /  0.0mm
03:59 42.6 °F /  5.9 °C 34.5 °F /  1.4 °C 30.4in /  1029.4hPa SO 5.2mph /  8.4km/h 8mph /  12.9km/h 72.8% 0in /  0.0mm
04:04 42.6 °F /  5.9 °C 34.5 °F /  1.4 °C 30.4in /  1029.4hPa SSO 5.2mph /  8.4km/h 7mph /  11.3km/h 73% 0in /  0.0mm
04:09 42.6 °F /  5.9 °C 34.5 °F /  1.4 °C 30.4in /  1029.3hPa SSO 4.4mph /  7.1km/h 6mph /  9.7km/h 73% 0in /  0.0mm
04:14 42.6 °F /  5.9 °C 34.5 °F /  1.4 °C 30.4in /  1029.3hPa Sur 4mph /  6.5km/h 6.2mph /  10km/h 73% 0in /  0.0mm
04:19 42.4 °F /  5.8 °C 34.5 °F /  1.4 °C 30.4in /  1029.3hPa Sur 4mph /  6.5km/h 7.4mph /  11.9km/h 73% 0in /  0.0mm
04:24 42.4 °F /  5.8 °C 34.3 °F /  1.3 °C 30.4in /  1029.2hPa Sur 4mph /  6.5km/h 7mph /  11.3km/h 73% 0in /  0.0mm
04:29 42.3 °F /  5.7 °C 34.5 °F /  1.4 °C 30.4in /  1029.2hPa Sur 4.2mph /  6.8km/h 7mph /  11.3km/h 74% 0in /  0.0mm
04:34 42.1 °F /  5.6 °C 34.3 °F /  1.3 °C 30.4in /  1029.2hPa SSO 4.3mph /  6.9km/h 6mph /  9.7km/h 73.9% 0in /  0.0mm
04:39 42.1 °F /  5.6 °C 34.2 °F /  1.2 °C 30.4in /  1029.0hPa Sur 3.9mph /  6.2km/h 6.2mph /  10km/h 73.3% 0in /  0.0mm
04:44 41.9 °F /  5.5 °C 34.3 °F /  1.3 °C 30.4in /  1029.0hPa Sur 3.6mph /  5.8km/h 6.2mph /  10km/h 74% 0in /  0.0mm
04:49 41.7 °F /  5.4 °C 34 °F /  1.1 °C 30.4in /  1029.0hPa Sur 3.9mph /  6.2km/h 6.9mph /  11.1km/h 74% 0in /  0.0mm
04:54 41.7 °F /  5.4 °C 34 °F /  1.1 °C 30.4in /  1028.9hPa SSO 4mph /  6.5km/h 7mph /  11.3km/h 74% 0in /  0.0mm
04:59 41.7 °F /  5.4 °C 34 °F /  1.1 °C 30.4in /  1028.9hPa SSO 4.2mph /  6.8km/h 7mph /  11.3km/h 74% 0in /  0.0mm
05:04 41.7 °F /  5.4 °C 34 °F /  1.1 °C 30.4in /  1028.9hPa SO 4.3mph /  6.9km/h 6.9mph /  11.1km/h 73.9% 0in /  0.0mm
05:09 41.9 °F /  5.5 °C 34 °F /  1.1 °C 30.4in /  1028.8hPa SO 4.3mph /  6.9km/h 7mph /  11.3km/h 73% 0in /  0.0mm
05:14 42.1 °F /  5.6 °C 33.8 °F /  1 °C 30.4in /  1028.8hPa SO 4.3mph /  6.9km/h 6mph /  9.7km/h 72.4% 0in /  0.0mm
05:19 42.3 °F /  5.7 °C 34 °F /  1.1 °C 30.4in /  1028.8hPa SO 3.9mph /  6.2km/h 6mph /  9.7km/h 72% 0in /  0.0mm
05:24 42.3 °F /  5.7 °C 34 °F /  1.1 °C 30.4in /  1028.7hPa SO 3.6mph /  5.8km/h 6.9mph /  11.1km/h 72% 0in /  0.0mm
05:29 42.3 °F /  5.7 °C 34 °F /  1.1 °C 30.4in /  1028.7hPa Sur 3.6mph /  5.8km/h 7mph /  11.3km/h 72% 0in /  0.0mm
05:34 42.3 °F /  5.7 °C 33.8 °F /  1 °C 30.4in /  1028.7hPa Sur 3.6mph /  5.8km/h 6mph /  9.7km/h 72% 0in /  0.0mm
05:39 42.1 °F /  5.6 °C 34 °F /  1.1 °C 30.4in /  1028.6hPa Sur 3.6mph /  5.8km/h 6mph /  9.7km/h 73% 0in /  0.0mm
05:44 41.7 °F /  5.4 °C 33.8 °F /  1 °C 30.4in /  1028.6hPa Sur 3.6mph /  5.8km/h 6.2mph /  10km/h 73% 0in /  0.0mm
05:49 41.5 °F /  5.3 °C 33.8 °F /  1 °C 30.4in /  1028.7hPa Sur 3.9mph /  6.2km/h 7.4mph /  11.9km/h 73.6% 0in /  0.0mm
05:54 41.4 °F /  5.2 °C 33.8 °F /  1 °C 30.4in /  1028.7hPa Sur 4mph /  6.5km/h 7mph /  11.3km/h 74% 0in /  0.0mm
05:59 41 °F /  5 °C 33.6 °F /  0.9 °C 30.4in /  1028.7hPa SSE 4.2mph /  6.8km/h 6.2mph /  10km/h 74.7% 0in /  0.0mm
06:04 40.5 °F /  4.7 °C 33.3 °F /  0.7 °C 30.4in /  1028.7hPa Sur 4.3mph /  6.9km/h 7.4mph /  11.9km/h 75.4% 0in /  0.0mm
06:09 39.7 °F /  4.3 °C 33.1 °F /  0.6 °C 30.4in /  1028.6hPa Sur 4.9mph /  7.9km/h 7.4mph /  11.9km/h 76.7% 0in /  0.0mm
06:14 39.6 °F /  4.2 °C 33.1 °F /  0.6 °C 30.4in /  1028.6hPa SSE 5.2mph /  8.4km/h 8.1mph /  13km/h 77.8% 0in /  0.0mm
06:19 39 °F /  3.9 °C 32.9 °F /  0.5 °C 30.4in /  1028.7hPa SSE 5.3mph /  8.6km/h 9.2mph /  14.8km/h 78.4% 0in /  0.0mm
06:24 38.7 °F /  3.7 °C 32.9 °F /  0.5 °C 30.4in /  1028.7hPa Sur 5.4mph /  8.7km/h 9mph /  14.5km/h 79.6% 0in /  0.0mm
06:29 38.7 °F /  3.7 °C 32.9 °F /  0.5 °C 30.4in /  1028.7hPa SSE 5.7mph /  9.2km/h 9mph /  14.5km/h 80% 0in /  0.0mm
06:34 38.5 °F /  3.6 °C 32.7 °F /  0.4 °C 30.4in /  1028.7hPa Sur 5.9mph /  9.5km/h 9mph /  14.5km/h 80% 0in /  0.0mm
06:39 38.7 °F /  3.7 °C 32.9 °F /  0.5 °C 30.4in /  1028.7hPa Sur 5.6mph /  9km/h 8mph /  12.9km/h 80% 0in /  0.0mm
06:44 38.7 °F /  3.7 °C 33.1 °F /  0.6 °C 30.4in /  1028.7hPa SSO 5.4mph /  8.7km/h 7mph /  11.3km/h 80% 0in /  0.0mm
06:49 39 °F /  3.9 °C 33.3 °F /  0.7 °C 30.4in /  1028.8hPa SSO 4.7mph /  7.6km/h 6.9mph /  11.1km/h 79.5% 0in /  0.0mm
06:54 39.4 °F /  4.1 °C 33.3 °F /  0.7 °C 30.4in /  1028.8hPa SSO 4.3mph /  6.9km/h 7mph /  11.3km/h 78.5% 0in /  0.0mm
06:59 39.7 °F /  4.3 °C 33.1 °F /  0.6 °C 30.4in /  1028.8hPa SSO 4.6mph /  7.4km/h 7mph /  11.3km/h 77.3% 0in /  0.0mm
07:04 39.9 °F /  4.4 °C 33.3 °F /  0.7 °C 30.4in /  1028.9hPa SSO 4.7mph /  7.6km/h 7mph /  11.3km/h 77% 0in /  0.0mm
07:09 39.9 °F /  4.4 °C 33.1 °F /  0.6 °C 30.4in /  1028.9hPa SSO 4.3mph /  6.9km/h 6.9mph /  11.1km/h 76% 0in /  0.0mm
07:14 40.1 °F /  4.5 °C 33.1 °F /  0.6 °C 30.4in /  1028.9hPa Sur 4mph /  6.5km/h 7mph /  11.3km/h 76% 0in /  0.0mm
07:19 40.1 °F /  4.5 °C 33.1 °F /  0.6 °C 30.4in /  1029.0hPa Sur 4.2mph /  6.8km/h 7.4mph /  11.9km/h 75.9% 0in /  0.0mm
07:24 40.3 °F /  4.6 °C 33.1 °F /  0.6 °C 30.4in /  1029.0hPa Sur 4.3mph /  6.9km/h 8.1mph /  13km/h 75% 0in /  0.0mm
07:29 40.3 °F /  4.6 °C 33.1 °F /  0.6 °C 30.4in /  1029.0hPa Sur 4.9mph /  7.9km/h 8mph /  12.9km/h 75% 0in /  0.0mm
07:34 40.3 °F /  4.6 °C 32.9 °F /  0.5 °C 30.4in /  1029.1hPa Sur 5.2mph /  8.4km/h 7.4mph /  11.9km/h 75% 0in /  0.0mm
07:39 40.1 °F /  4.5 °C 32.9 °F /  0.5 °C 30.4in /  1029.1hPa Sur 4.9mph /  7.9km/h 7mph /  11.3km/h 75% 0in /  0.0mm
07:44 40.1 °F /  4.5 °C 32.9 °F /  0.5 °C 30.4in /  1029.1hPa Sur 4.7mph /  7.6km/h 7mph /  11.3km/h 75% 0in /  0.0mm
07:49 40.3 °F /  4.6 °C 32.9 °F /  0.5 °C 30.4in /  1029.3hPa Sur 4.7mph /  7.6km/h 7mph /  11.3km/h 75% 0in /  0.0mm
07:54 40.3 °F /  4.6 °C 32.9 °F /  0.5 °C 30.4in /  1029.3hPa Sur 4.7mph /  7.6km/h 7mph /  11.3km/h 75% 0in /  0.0mm
07:59 40.1 °F /  4.5 °C 32.7 °F /  0.4 °C 30.4in /  1029.3hPa Sur 4.7mph /  7.6km/h 7mph /  11.3km/h 75% 0in /  0.0mm
08:04 39.9 °F /  4.4 °C 33.1 °F /  0.6 °C 30.4in /  1029.5hPa Sur 4.7mph /  7.6km/h 7mph /  11.3km/h 76% 0in /  0.0mm
08:09 39.9 °F /  4.4 °C 33.1 °F /  0.6 °C 30.4in /  1029.5hPa SSO 4mph /  6.5km/h 6mph /  9.7km/h 76% 0in /  0.0mm
08:14 39.7 °F /  4.3 °C 32.7 °F /  0.4 °C 30.4in /  1029.5hPa SSO 3.6mph /  5.8km/h 5.9mph /  9.5km/h 76% 0in /  0.0mm
08:19 39.7 °F /  4.3 °C 32.7 °F /  0.4 °C 30.4in /  1029.5hPa SSO 3.9mph /  6.2km/h 7.4mph /  11.9km/h 76% 0in /  0.0mm
08:24 39.9 °F /  4.4 °C 32.9 °F /  0.5 °C 30.4in /  1029.5hPa SSO 4mph /  6.5km/h 8.5mph /  13.7km/h 76% 0in /  0.0mm
08:29 39.9 °F /  4.4 °C 32.5 °F /  0.3 °C 30.4in /  1029.5hPa SSO 4.5mph /  7.2km/h 9mph /  14.5km/h 75% 0in /  0.0mm
08:34 39.9 °F /  4.4 °C 32.5 °F /  0.3 °C 30.4in /  1029.8hPa Sur 4.7mph /  7.6km/h 9mph /  14.5km/h 75% 0in /  0.0mm
08:39 39.9 °F /  4.4 °C 32.5 °F /  0.3 °C 30.4in /  1029.8hPa Sur 5mph /  8.1km/h 8.1mph /  13km/h 75% 0in /  0.0mm
08:44 39.7 °F /  4.3 °C 32.7 °F /  0.4 °C 30.4in /  1029.8hPa SSO 5.2mph /  8.4km/h 8.5mph /  13.7km/h 75.8% 0in /  0.0mm
08:49 39.6 °F /  4.2 °C 32.5 °F /  0.3 °C 30.4in /  1029.9hPa SSO 5.7mph /  9.1km/h 9mph /  14.5km/h 76% 0in /  0.0mm
08:54 39.7 °F /  4.3 °C 32.5 °F /  0.3 °C 30.4in /  1029.9hPa SSO 5.9mph /  9.5km/h 8mph /  12.9km/h 75.5% 0in /  0.0mm
08:59 39.9 °F /  4.4 °C 32.4 °F /  0.2 °C 30.4in /  1029.9hPa SSO 4.8mph /  7.7km/h 8.1mph /  13km/h 74.6% 0in /  0.0mm
09:04 40.1 °F /  4.5 °C 32.4 °F /  0.2 °C 30.4in /  1030.0hPa SSO 4.3mph /  6.9km/h 8.1mph /  13km/h 73.8% 0in /  0.0mm
09:09 40.3 °F /  4.6 °C 32.4 °F /  0.2 °C 30.4in /  1030.0hPa SSO 4.5mph /  7.3km/h 7mph /  11.3km/h 73% 0in /  0.0mm
09:14 40.5 °F /  4.7 °C 32.4 °F /  0.2 °C 30.4in /  1030.0hPa SSO 4.7mph /  7.6km/h 5.8mph /  9.3km/h 72.4% 0in /  0.0mm
09:19 40.6 °F /  4.8 °C 32.4 °F /  0.2 °C 30.4in /  1030.2hPa SSO 4mph /  6.5km/h 8.1mph /  13km/h 71.8% 0in /  0.0mm
09:24 41 °F /  5 °C 32.4 °F /  0.2 °C 30.4in /  1030.2hPa SSO 3.6mph /  5.8km/h 8mph /  12.9km/h 71% 0in /  0.0mm
09:29 41.4 °F /  5.2 °C 32.4 °F /  0.2 °C 30.4in /  1030.2hPa SSO 4mph /  6.5km/h 8mph /  12.9km/h 70.1% 0in /  0.0mm
09:34 41.5 °F /  5.3 °C 32.4 °F /  0.2 °C 30.4in /  1030.3hPa SSO 4.3mph /  6.9km/h 7mph /  11.3km/h 69.5% 0in /  0.0mm
09:39 42.1 °F /  5.6 °C 32.5 °F /  0.3 °C 30.4in /  1030.3hPa SSO 3.9mph /  6.2km/h 6mph /  9.7km/h 69% 0in /  0.0mm
09:44 42.4 °F /  5.8 °C 32.7 °F /  0.4 °C 30.4in /  1030.3hPa Sur 3.6mph /  5.8km/h 6.2mph /  10km/h 68.4% 0in /  0.0mm
09:49 42.4 °F /  5.8 °C 32.7 °F /  0.4 °C 30.4in /  1030.4hPa SSO 3.9mph /  6.2km/h 6.9mph /  11.1km/h 68% 0in /  0.0mm
09:54 42.4 °F /  5.8 °C 32.5 °F /  0.3 °C 30.4in /  1030.4hPa SSO 4mph /  6.5km/h 8.1mph /  13km/h 67.8% 0in /  0.0mm
09:59 42.6 °F /  5.9 °C 32.5 °F /  0.3 °C 30.4in /  1030.4hPa SSO 4.5mph /  7.2km/h 8.1mph /  13km/h 67.3% 0in /  0.0mm
10:04 43 °F /  6.1 °C 32.7 °F /  0.4 °C 30.4in /  1030.4hPa SO 4.7mph /  7.6km/h 8mph /  12.9km/h 66.7% 0in /  0.0mm
10:09 43.3 °F /  6.3 °C 32.7 °F /  0.4 °C 30.4in /  1030.4hPa SO 4.5mph /  7.2km/h 8.1mph /  13km/h 66% 0in /  0.0mm
10:14 43.5 °F /  6.4 °C 32.7 °F /  0.4 °C 30.4in /  1030.4hPa SO 4.3mph /  6.9km/h 8.7mph /  14km/h 65.7% 0in /  0.0mm
10:19 43.9 °F /  6.6 °C 32.7 °F /  0.4 °C 30.4in /  1030.4hPa SO 4.9mph /  7.9km/h 9mph /  14.5km/h 64.8% 0in /  0.0mm
10:24 44.2 °F /  6.8 °C 32.5 °F /  0.3 °C 30.4in /  1030.4hPa SO 5.2mph /  8.4km/h 8.5mph /  13.7km/h 63% 0in /  0.0mm
10:29 45 °F /  7.2 °C 32.4 °F /  0.2 °C 30.4in /  1030.4hPa SO 4.9mph /  7.9km/h 9mph /  14.5km/h 61.5% 0in /  0.0mm
10:34 45.3 °F /  7.4 °C 32.5 °F /  0.3 °C 30.4in /  1030.5hPa SO 4.7mph /  7.6km/h 7mph /  11.3km/h 60.9% 0in /  0.0mm
10:39 45.9 °F /  7.7 °C 32.7 °F /  0.4 °C 30.4in /  1030.5hPa SO 4.2mph /  6.8km/h 6mph /  9.7km/h 60.1% 0in /  0.0mm
10:44 46.2 °F /  7.9 °C 32.7 °F /  0.4 °C 30.4in /  1030.5hPa SSO 4mph /  6.5km/h 6.2mph /  10km/h 59.4% 0in /  0.0mm
10:49 46.6 °F /  8.1 °C 32.7 °F /  0.4 °C 30.4in /  1030.5hPa SSO 3.7mph /  6km/h 7.4mph /  11.9km/h 58.1% 0in /  0.0mm
10:54 46.8 °F /  8.2 °C 32.7 °F /  0.4 °C 30.4in /  1030.5hPa SO 3.6mph /  5.8km/h 7mph /  11.3km/h 57.9% 0in /  0.0mm
10:59 47.1 °F /  8.4 °C 32.9 °F /  0.5 °C 30.4in /  1030.5hPa SSO 4.1mph /  6.6km/h 7mph /  11.3km/h 57.6% 0in /  0.0mm
11:04 47.7 °F /  8.7 °C 32.9 °F /  0.5 °C 30.4in /  1030.6hPa SSO 4.3mph /  6.9km/h 7mph /  11.3km/h 56.3% 0in /  0.0mm
11:09 48.2 °F /  9 °C 33.1 °F /  0.6 °C 30.4in /  1030.6hPa SSO 4.1mph /  6.6km/h 6.9mph /  11.1km/h 55.7% 0in /  0.0mm
11:14 48.6 °F /  9.2 °C 33.3 °F /  0.7 °C 30.4in /  1030.6hPa SSO 4mph /  6.5km/h 7mph /  11.3km/h 55.3% 0in /  0.0mm
11:19 48.9 °F /  9.4 °C 33.3 °F /  0.7 °C 30.4in /  1030.6hPa SSO 4.2mph /  6.8km/h 7.4mph /  11.9km/h 54.9% 0in /  0.0mm
11:24 49.1 °F /  9.5 °C 33.6 °F /  0.9 °C 30.4in /  1030.5hPa SSO 4.3mph /  6.9km/h 7mph /  11.3km/h 55% 0in /  0.0mm
11:29 49.5 °F /  9.7 °C 33.6 °F /  0.9 °C 30.4in /  1030.5hPa SO 4.5mph /  7.3km/h 7mph /  11.3km/h 54.4% 0in /  0.0mm
11:34 49.6 °F /  9.8 °C 33.8 °F /  1 °C 30.4in /  1030.5hPa SSO 4.7mph /  7.6km/h 8.1mph /  13km/h 54.2% 0in /  0.0mm
11:39 49.8 °F /  9.9 °C 33.8 °F /  1 °C 30.4in /  1030.4hPa SO 4.5mph /  7.2km/h 8mph /  12.9km/h 54.1% 0in /  0.0mm
11:44 50.2 °F /  10.1 °C 34.2 °F /  1.2 °C 30.4in /  1030.4hPa SSO 4.3mph /  6.9km/h 7mph /  11.3km/h 54% 0in /  0.0mm
11:49 50.7 °F /  10.4 °C 34.5 °F /  1.4 °C 30.4in /  1030.4hPa SO 3.5mph /  5.7km/h 6mph /  9.7km/h 53.6% 0in /  0.0mm
11:54 51.3 °F /  10.7 °C 34.7 °F /  1.5 °C 30.4in /  1030.2hPa SSO 3.1mph /  5km/h 6.9mph /  11.1km/h 53% 0in /  0.0mm
11:59 51.6 °F /  10.9 °C 34.5 °F /  1.4 °C 30.4in /  1030.2hPa SO 3.7mph /  6km/h 7mph /  11.3km/h 51.8% 0in /  0.0mm
12:04 52 °F /  11.1 °C 34 °F /  1.1 °C 30.4in /  1030.2hPa SSO 4mph /  6.5km/h 7mph /  11.3km/h 50.3% 0in /  0.0mm
12:09 52.3 °F /  11.3 °C 34.2 °F /  1.2 °C 30.4in /  1030.0hPa SO 4mph /  6.5km/h 6.2mph /  10km/h 49.8% 0in /  0.0mm
12:14 52.9 °F /  11.6 °C 34.2 °F /  1.2 °C 30.4in /  1030.0hPa SSO 4mph /  6.5km/h 6.4mph /  10.3km/h 48.9% 0in /  0.0mm
12:19 53.2 °F /  11.8 °C 34.2 °F /  1.2 °C 30.4in /  1030.0hPa SSO 3.7mph /  6km/h 8.1mph /  13km/h 48.1% 0in /  0.0mm
12:24 53.4 °F /  11.9 °C 33.6 °F /  0.9 °C 30.4in /  1029.7hPa SSO 3.6mph /  5.8km/h 8.1mph /  13km/h 46.6% 0in /  0.0mm
12:29 54 °F /  12.2 °C 33.8 °F /  1 °C 30.4in /  1029.7hPa SSO 4.3mph /  6.9km/h 8.1mph /  13km/h 46.2% 0in /  0.0mm
12:34 54.3 °F /  12.4 °C 33.4 °F /  0.8 °C 30.4in /  1029.7hPa SSO 4.7mph /  7.6km/h 9.2mph /  14.8km/h 45% 0in /  0.0mm
12:39 54.9 °F /  12.7 °C 33.4 °F /  0.8 °C 30.4in /  1029.3hPa SO 5.2mph /  8.3km/h 9mph /  14.5km/h 44.4% 0in /  0.0mm
12:44 55 °F /  12.8 °C 34.2 °F /  1.2 °C 30.4in /  1029.3hPa SSO 5.4mph /  8.7km/h 8mph /  12.9km/h 45.1% 0in /  0.0mm
12:49 55.6 °F /  13.1 °C 34.7 °F /  1.5 °C 30.4in /  1029.3hPa SSO 4.7mph /  7.6km/h 7mph /  11.3km/h 45.1% 0in /  0.0mm
12:54 56.1 °F /  13.4 °C 35.2 °F /  1.8 °C 30.4in /  1029.1hPa SSO 4.3mph /  6.9km/h 6.9mph /  11.1km/h 45.2% 0in /  0.0mm
12:59 56.7 °F /  13.7 °C 35.2 °F /  1.8 °C 30.4in /  1029.1hPa Sur 4.1mph /  6.6km/h 8.5mph /  13.7km/h 44.7% 0in /  0.0mm
13:04 57 °F /  13.9 °C 34.9 °F /  1.6 °C 30.4in /  1029.1hPa SSO 4mph /  6.5km/h 9mph /  14.5km/h 43.4% 0in /  0.0mm
13:09 57.4 °F /  14.1 °C 34.7 °F /  1.5 °C 30.4in /  1028.9hPa SSO 4.5mph /  7.2km/h 8.5mph /  13.7km/h 42.5% 0in /  0.0mm
13:14 57.6 °F /  14.2 °C 34.5 °F /  1.4 °C 30.4in /  1028.9hPa SSO 4.7mph /  7.6km/h 9mph /  14.5km/h 42% 0in /  0.0mm
13:19 57.7 °F /  14.3 °C 34.3 °F /  1.3 °C 30.4in /  1028.9hPa SSO 4.7mph /  7.6km/h 7.6mph /  12.2km/h 41.2% 0in /  0.0mm
13:24 58.3 °F /  14.6 °C 33.8 °F /  1 °C 30.4in /  1028.7hPa SSO 4.7mph /  7.6km/h 8.1mph /  13km/h 39.7% 0in /  0.0mm
13:29 58.6 °F /  14.8 °C 33.4 °F /  0.8 °C 30.4in /  1028.7hPa SSO 5mph /  8.1km/h 8.1mph /  13km/h 38.5% 0in /  0.0mm
13:34 59.2 °F /  15.1 °C 33.6 °F /  0.9 °C 30.4in /  1028.7hPa SSO 5.2mph /  8.4km/h 8.5mph /  13.7km/h 38% 0in /  0.0mm
13:39 59.5 °F /  15.3 °C 33.8 °F /  1 °C 30.4in /  1028.5hPa SO 5.2mph /  8.4km/h 9mph /  14.5km/h 38% 0in /  0.0mm
13:44 59.7 °F /  15.4 °C 34.2 °F /  1.2 °C 30.4in /  1028.5hPa SSO 5.2mph /  8.4km/h 8.1mph /  13km/h 38% 0in /  0.0mm
13:49 60.3 °F /  15.7 °C 34.2 °F /  1.2 °C 30.4in /  1028.5hPa OSO 4.5mph /  7.2km/h 8.1mph /  13km/h 37.4% 0in /  0.0mm
13:54 60.6 °F /  15.9 °C 34 °F /  1.1 °C 30.4in /  1028.3hPa SO 4mph /  6.5km/h 8.1mph /  13km/h 36.7% 0in /  0.0mm
13:59 60.8 °F /  16 °C 34.3 °F /  1.3 °C 30.4in /  1028.3hPa OSO 4.5mph /  7.2km/h 8.1mph /  13km/h 36.9% 0in /  0.0mm
14:04 61.2 °F /  16.2 °C 33.8 °F /  1 °C 30.4in /  1028.3hPa SO 4.7mph /  7.6km/h 8.1mph /  13km/h 35.8% 0in /  0.0mm
14:09 61.2 °F /  16.2 °C 34 °F /  1.1 °C 30.4in /  1027.9hPa SO 5mph /  8.1km/h 8mph /  12.9km/h 36% 0in /  0.0mm
14:14 61.5 °F /  16.4 °C 33.6 °F /  0.9 °C 30.4in /  1027.9hPa SO 5.2mph /  8.4km/h 8.1mph /  13km/h 35.1% 0in /  0.0mm
14:19 61.9 °F /  16.6 °C 33.6 °F /  0.9 °C 30.4in /  1027.9hPa Sur 4.6mph /  7.4km/h 8mph /  12.9km/h 34.7% 0in /  0.0mm
14:24 62.1 °F /  16.7 °C 33.4 °F /  0.8 °C 30.4in /  1027.7hPa SSO 4.3mph /  6.9km/h 7mph /  11.3km/h 34% 0in /  0.0mm
14:29 62.4 °F /  16.9 °C 33.1 °F /  0.6 °C 30.4in /  1027.7hPa SSO 4.1mph /  6.6km/h 7mph /  11.3km/h 33.3% 0in /  0.0mm
14:34 62.8 °F /  17.1 °C 32.5 °F /  0.3 °C 30.4in /  1027.7hPa SO 4mph /  6.5km/h 6mph /  9.7km/h 32.1% 0in /  0.0mm
14:39 63.1 °F /  17.3 °C 32.7 °F /  0.4 °C 30.4in /  1027.7hPa SSO 3.8mph /  6.1km/h 6.9mph /  11.1km/h 32% 0in /  0.0mm
14:44 63.3 °F /  17.4 °C 32.9 °F /  0.5 °C 30.4in /  1027.7hPa OSO 3.6mph /  5.8km/h 7mph /  11.3km/h 32% 0in /  0.0mm
14:49 63.5 °F /  17.5 °C 33.1 °F /  0.6 °C 30.4in /  1027.7hPa SSO 3.6mph /  5.8km/h 6mph /  9.7km/h 32% 0in /  0.0mm
14:54 63.9 °F /  17.7 °C 33.4 °F /  0.8 °C 30.3in /  1027.5hPa SSO 3.6mph /  5.8km/h 7.4mph /  11.9km/h 32% 0in /  0.0mm
14:59 64 °F /  17.8 °C 33.6 °F /  0.9 °C 30.3in /  1027.5hPa Sur 3.6mph /  5.8km/h 7mph /  11.3km/h 32% 0in /  0.0mm
15:04 64.2 °F /  17.9 °C 33.8 °F /  1 °C 30.3in /  1027.5hPa SO 3.6mph /  5.8km/h 6mph /  9.7km/h 32% 0in /  0.0mm
15:09 64.6 °F /  18.1 °C 34 °F /  1.1 °C 30.3in /  1027.4hPa OSO 3.2mph /  5.1km/h 6.9mph /  11.1km/h 31.9% 0in /  0.0mm
15:14 64.8 °F /  18.2 °C 33.4 °F /  0.8 °C 30.3in /  1027.4hPa OSO 2.9mph /  4.7km/h 7mph /  11.3km/h 31% 0in /  0.0mm
15:19 64.8 °F /  18.2 °C 33.4 °F /  0.8 °C 30.3in /  1027.4hPa SO 3.6mph /  5.8km/h 7mph /  11.3km/h 31% 0in /  0.0mm
15:24 64.8 °F /  18.2 °C 33.6 °F /  0.9 °C 30.3in /  1027.3hPa SO 4mph /  6.5km/h 7mph /  11.3km/h 31.2% 0in /  0.0mm
15:29 64.9 °F /  18.3 °C 34 °F /  1.1 °C 30.3in /  1027.3hPa SO 4.2mph /  6.8km/h 7mph /  11.3km/h 31.6% 0in /  0.0mm
15:34 64.9 °F /  18.3 °C 34.3 °F /  1.3 °C 30.3in /  1027.3hPa SO 4.3mph /  6.9km/h 6.9mph /  11.1km/h 32% 0in /  0.0mm
15:39 65.1 °F /  18.4 °C 34.5 °F /  1.4 °C 30.3in /  1027.1hPa SSO 4.1mph /  6.6km/h 7mph /  11.3km/h 32.1% 0in /  0.0mm
15:44 65.5 °F /  18.6 °C 35.2 °F /  1.8 °C 30.3in /  1027.1hPa SSO 4mph /  6.5km/h 6.9mph /  11.1km/h 32.7% 0in /  0.0mm
15:49 65.7 °F /  18.7 °C 35.1 °F /  1.7 °C 30.3in /  1027.1hPa SO 3.8mph /  6.1km/h 7.4mph /  11.9km/h 32% 0in /  0.0mm
15:54 65.8 °F /  18.8 °C 35.6 °F /  2 °C 30.3in /  1027.0hPa SSO 3.6mph /  5.8km/h 7mph /  11.3km/h 32.7% 0in /  0.0mm
15:59 65.8 °F /  18.8 °C 36 °F /  2.2 °C 30.3in /  1027.0hPa Sur 3.9mph /  6.2km/h 6mph /  9.7km/h 33% 0in /  0.0mm
16:04 66 °F /  18.9 °C 36.1 °F /  2.3 °C 30.3in /  1027.2hPa Sur 4mph /  6.5km/h 6mph /  9.7km/h 33% 0in /  0.0mm
16:09 66.4 °F /  19.1 °C 36.3 °F /  2.4 °C 30.3in /  1027.2hPa SSO 3mph /  4.8km/h 5mph /  8km/h 33% 0in /  0.0mm
16:14 66.6 °F /  19.2 °C 36.3 °F /  2.4 °C 30.3in /  1027.2hPa SO 2.4mph /  3.9km/h 5mph /  8km/h 32.6% 0in /  0.0mm
16:19 66.6 °F /  19.2 °C 36.5 °F /  2.5 °C 30.3in /  1027.2hPa SO 2.8mph /  4.5km/h 5.9mph /  9.5km/h 33% 0in /  0.0mm
16:24 66.7 °F /  19.3 °C 36.7 °F /  2.6 °C 30.3in /  1027.2hPa SO 3.1mph /  5km/h 6.2mph /  10km/h 33.1% 0in /  0.0mm
16:29 66.6 °F /  19.2 °C 36.9 °F /  2.7 °C 30.3in /  1027.2hPa SO 3.7mph /  5.9km/h 6mph /  9.7km/h 33.3% 0in /  0.0mm
16:34 66.7 °F /  19.3 °C 37.6 °F /  3.1 °C 30.3in /  1027.2hPa SO 4mph /  6.5km/h 6mph /  9.7km/h 34% 0in /  0.0mm
16:39 66.7 °F /  19.3 °C 37.6 °F /  3.1 °C 30.3in /  1027.1hPa SSO 3.8mph /  6.1km/h 6mph /  9.7km/h 34% 0in /  0.0mm
16:44 66.9 °F /  19.4 °C 37.6 °F /  3.1 °C 30.3in /  1027.1hPa SSO 3.6mph /  5.8km/h 6.2mph /  10km/h 34% 0in /  0.0mm
16:49 66.9 °F /  19.4 °C 37.6 °F /  3.1 °C 30.3in /  1027.1hPa SSO 3.9mph /  6.2km/h 6mph /  9.7km/h 34% 0in /  0.0mm
16:54 66.9 °F /  19.4 °C 37.9 °F /  3.3 °C 30.3in /  1027.0hPa SSO 4mph /  6.5km/h 6mph /  9.7km/h 34.4% 0in /  0.0mm
16:59 67.3 °F /  19.6 °C 38.7 °F /  3.7 °C 30.3in /  1027.0hPa SSO 2.9mph /  4.7km/h 5mph /  8km/h 34.9% 0in /  0.0mm
17:04 67.5 °F /  19.7 °C 38.8 °F /  3.8 °C 30.3in /  1027.2hPa Sur 2.4mph /  3.9km/h 3mph /  4.8km/h 35% 0in /  0.0mm
17:09 67.5 °F /  19.7 °C 38.7 °F /  3.7 °C 30.3in /  1027.2hPa Sur 2.2mph /  3.5km/h 3.6mph /  5.8km/h 34.9% 0in /  0.0mm
17:14 67.5 °F /  19.7 °C 38.8 °F /  3.8 °C 30.3in /  1027.2hPa Sur 2mph /  3.2km/h 4mph /  6.4km/h 35% 0in /  0.0mm
17:19 67.3 °F /  19.6 °C 38.7 °F /  3.7 °C 30.3in /  1027.2hPa Sur 1.9mph /  3km/h 3.5mph /  5.6km/h 35% 0in /  0.0mm
17:24 67.1 °F /  19.5 °C 39 °F /  3.9 °C 30.3in /  1027.2hPa SSE 1.8mph /  2.9km/h 4.6mph /  7.4km/h 35.8% 0in /  0.0mm
17:29 66.7 °F /  19.3 °C 39.9 °F /  4.4 °C 30.3in /  1027.2hPa ESE 2.2mph /  3.5km/h 5mph /  8km/h 37.5% 0in /  0.0mm
17:34 66 °F /  18.9 °C 40.1 °F /  4.5 °C 30.3in /  1027.3hPa ESE 2.4mph /  3.9km/h 5mph /  8km/h 38.6% 0in /  0.0mm
17:39 65.7 °F /  18.7 °C 40.3 °F /  4.6 °C 30.3in /  1027.3hPa ESE 2.7mph /  4.4km/h 5mph /  8km/h 39.5% 0in /  0.0mm
17:44 65.3 °F /  18.5 °C 40.3 °F /  4.6 °C 30.3in /  1027.3hPa ESE 2.9mph /  4.7km/h 5mph /  8km/h 40% 0in /  0.0mm
17:49 65.1 °F /  18.4 °C 40.5 °F /  4.7 °C 30.3in /  1027.4hPa ESE 2.3mph /  3.7km/h 4.6mph /  7.4km/h 40.3% 0in /  0.0mm
17:54 64.9 °F /  18.3 °C 40.6 °F /  4.8 °C 30.3in /  1027.4hPa ESE 2mph /  3.2km/h 5mph /  8km/h 41.1% 0in /  0.0mm
17:59 64.4 °F /  18 °C 40.8 °F /  4.9 °C 30.3in /  1027.4hPa ESE 2.3mph /  3.7km/h 4mph /  6.4km/h 42% 0in /  0.0mm
18:04 64 °F /  17.8 °C 40.8 °F /  4.9 °C 30.3in /  1027.5hPa ESE 2.4mph /  3.9km/h 3mph /  4.8km/h 42.5% 0in /  0.0mm
18:09 63.9 °F /  17.7 °C 41 °F /  5 °C 30.3in /  1027.5hPa ESE 0.9mph /  1.5km/h 2mph /  3.2km/h 43.2% 0in /  0.0mm
18:14 63.3 °F /  17.4 °C 41 °F /  5 °C 30.3in /  1027.5hPa Calm     44% 0in /  0.0mm
18:19 63.1 °F /  17.3 °C 41.2 °F /  5.1 °C 30.3in /  1027.5hPa Calm   3.6mph /  5.8km/h 44.6% 0in /  0.0mm
18:24 63 °F /  17.2 °C 42.1 °F /  5.6 °C 30.3in /  1027.5hPa Calm   4.7mph /  7.6km/h 46.5% 0in /  0.0mm
18:29 62.6 °F /  17 °C 42.6 °F /  5.9 °C 30.3in /  1027.5hPa OSO 2mph /  3.2km/h 5.2mph /  8.4km/h 47.9% 0in /  0.0mm
18:34 62.1 °F /  16.7 °C 42.8 °F /  6 °C 30.4in /  1027.7hPa OSO 3.1mph /  5km/h 5.2mph /  8.4km/h 49% 0in /  0.0mm
18:39 61.5 °F /  16.4 °C 43 °F /  6.1 °C 30.4in /  1027.7hPa OSO 3.1mph /  5km/h 6.9mph /  11.1km/h 50.3% 0in /  0.0mm
18:44 61.2 °F /  16.2 °C 43.2 °F /  6.2 °C 30.4in /  1027.7hPa OSO 3.1mph /  5km/h 7mph /  11.3km/h 51.5% 0in /  0.0mm
18:49 60.6 °F /  15.9 °C 43.2 °F /  6.2 °C 30.4in /  1027.7hPa OSO 3.4mph /  5.5km/h 6mph /  9.7km/h 52.5% 0in /  0.0mm
18:54 60.3 °F /  15.7 °C 43.2 °F /  6.2 °C 30.4in /  1027.7hPa Oeste 3.6mph /  5.8km/h 5.2mph /  8.4km/h 53.1% 0in /  0.0mm
18:59 59.9 °F /  15.5 °C 43.2 °F /  6.2 °C 30.4in /  1027.7hPa Oeste 2.5mph /  4km/h 5mph /  8km/h 54% 0in /  0.0mm
19:04 59.5 °F /  15.3 °C 43.3 °F /  6.3 °C 30.4in /  1027.9hPa Oeste 2mph /  3.2km/h 3mph /  4.8km/h 55% 0in /  0.0mm
19:09 59.4 °F /  15.2 °C 43.5 °F /  6.4 °C 30.4in /  1027.9hPa Oeste 0.7mph /  1.2km/h 7.4mph /  11.9km/h 55.8% 0in /  0.0mm
19:14 59.2 °F /  15.1 °C 43.5 °F /  6.4 °C 30.4in /  1027.9hPa Calm   7mph /  11.3km/h 56.2% 0in /  0.0mm
19:19 59 °F /  15 °C 43.7 °F /  6.5 °C 30.4in /  1028.1hPa SSO 2mph /  3.2km/h 5.8mph /  9.3km/h 56.8% 0in /  0.0mm
19:24 58.6 °F /  14.8 °C 44.1 °F /  6.7 °C 30.4in /  1028.1hPa SO 3.1mph /  5km/h 6.9mph /  11.1km/h 58.3% 0in /  0.0mm
19:29 58.5 °F /  14.7 °C 44.4 °F /  6.9 °C 30.4in /  1028.1hPa SO 3.7mph /  5.9km/h 7mph /  11.3km/h 59.8% 0in /  0.0mm
19:34 58.1 °F /  14.5 °C 44.8 °F /  7.1 °C 30.4in /  1028.2hPa SO 4mph /  6.5km/h 7mph /  11.3km/h 61.3% 0in /  0.0mm
19:39 57.7 °F /  14.3 °C 45 °F /  7.2 °C 30.4in /  1028.2hPa SO 4mph /  6.5km/h 6mph /  9.7km/h 62.3% 0in /  0.0mm
19:44 57.6 °F /  14.2 °C 45.1 °F /  7.3 °C 30.4in /  1028.2hPa SO 4mph /  6.5km/h 5mph /  8km/h 63.3% 0in /  0.0mm
19:49 57.4 °F /  14.1 °C 45.3 °F /  7.4 °C 30.4in /  1028.3hPa SO 3.3mph /  5.3km/h 5mph /  8km/h 64.3% 0in /  0.0mm
19:54 57 °F /  13.9 °C 45.5 °F /  7.5 °C 30.4in /  1028.3hPa SO 2.9mph /  4.7km/h 6.2mph /  10km/h 65.2% 0in /  0.0mm
19:59 56.8 °F /  13.8 °C 46 °F /  7.8 °C 30.4in /  1028.3hPa SO 3.4mph /  5.4km/h 6.9mph /  11.1km/h 66.6% 0in /  0.0mm
20:04 56.8 °F /  13.8 °C 46.2 °F /  7.9 °C 30.4in /  1028.3hPa SO 3.6mph /  5.8km/h 7mph /  11.3km/h 67.6% 0in /  0.0mm
20:09 56.7 °F /  13.7 °C 46.4 °F /  8 °C 30.4in /  1028.3hPa SSO 3.9mph /  6.2km/h 6mph /  9.7km/h 68.3% 0in /  0.0mm
20:14 56.5 °F /  13.6 °C 46.4 °F /  8 °C 30.4in /  1028.3hPa SSO 4mph /  6.5km/h 6mph /  9.7km/h 69% 0in /  0.0mm
20:19 56.3 °F /  13.5 °C 46.6 °F /  8.1 °C 30.4in /  1028.3hPa SSO 3.5mph /  5.6km/h 6mph /  9.7km/h 69.9% 0in /  0.0mm
20:24 55.9 °F /  13.3 °C 46.4 °F /  8 °C 30.4in /  1028.3hPa Sur 3.1mph /  5km/h 5.8mph /  9.3km/h 70.1% 0in /  0.0mm
20:29 55.8 °F /  13.2 °C 46.6 °F /  8.1 °C 30.4in /  1028.3hPa Sur 3.4mph /  5.5km/h 6.2mph /  10km/h 71.2% 0in /  0.0mm
20:34 55.2 °F /  12.9 °C 46.6 °F /  8.1 °C 30.4in /  1028.3hPa Sur 3.6mph /  5.8km/h 6.2mph /  10km/h 72.3% 0in /  0.0mm
20:39 54.9 °F /  12.7 °C 46.4 °F /  8 °C 30.4in /  1028.3hPa SSE 3.9mph /  6.2km/h 6mph /  9.7km/h 73.1% 0in /  0.0mm
20:44 54.3 °F /  12.4 °C 46.4 °F /  8 °C 30.4in /  1028.3hPa SSE 4mph /  6.5km/h 6.4mph /  10.3km/h 74.5% 0in /  0.0mm
20:49 53.8 °F /  12.1 °C 46.4 °F /  8 °C 30.4in /  1028.3hPa SSE 4.2mph /  6.8km/h 7.6mph /  12.2km/h 75.9% 0in /  0.0mm
20:54 53.2 °F /  11.8 °C 46.4 °F /  8 °C 30.4in /  1028.3hPa SSE 4.3mph /  6.9km/h 8.1mph /  13km/h 77.6% 0in /  0.0mm
20:59 52.9 °F /  11.6 °C 46.4 °F /  8 °C 30.4in /  1028.3hPa SSE 4.9mph /  7.9km/h 8.1mph /  13km/h 78.6% 0in /  0.0mm
21:04 52.5 °F /  11.4 °C 46.2 °F /  7.9 °C 30.4in /  1028.3hPa SSE 5.2mph /  8.4km/h 8mph /  12.9km/h 79% 0in /  0.0mm
21:09 52.3 °F /  11.3 °C 46.2 °F /  7.9 °C 30.4in /  1028.3hPa SSE 5.3mph /  8.6km/h 9.2mph /  14.8km/h 79.5% 0in /  0.0mm
21:14 52.2 °F /  11.2 °C 46.2 °F /  7.9 °C 30.4in /  1028.3hPa Sur 5.4mph /  8.7km/h 9mph /  14.5km/h 80% 0in /  0.0mm
21:19 52 °F /  11.1 °C 45.9 °F /  7.7 °C 30.4in /  1028.3hPa SSE 6mph /  9.7km/h 9.2mph /  14.8km/h 80% 0in /  0.0mm
21:24 51.8 °F /  11 °C 45.9 °F /  7.7 °C 30.4in /  1028.3hPa SSE 6.4mph /  10.3km/h 9.2mph /  14.8km/h 80% 0in /  0.0mm
21:29 51.6 °F /  10.9 °C 45.7 °F /  7.6 °C 30.4in /  1028.3hPa Sur 6.1mph /  9.8km/h 9mph /  14.5km/h 80% 0in /  0.0mm
21:34 51.6 °F /  10.9 °C 45.9 °F /  7.7 °C 30.4in /  1028.3hPa SSO 5.9mph /  9.5km/h 8.1mph /  13km/h 80.4% 0in /  0.0mm
21:39 51.4 °F /  10.8 °C 45.9 °F /  7.7 °C 30.4in /  1028.3hPa Sur 5.5mph /  8.8km/h 8.1mph /  13km/h 81% 0in /  0.0mm
21:44 51.4 °F /  10.8 °C 45.9 °F /  7.7 °C 30.4in /  1028.3hPa Sur 5.2mph /  8.4km/h 8mph /  12.9km/h 81% 0in /  0.0mm
21:49 51.4 °F /  10.8 °C 46 °F /  7.8 °C 30.4in /  1028.3hPa Sur 4.6mph /  7.4km/h 6mph /  9.7km/h 81.8% 0in /  0.0mm
21:54 51.3 °F /  10.7 °C 46 °F /  7.8 °C 30.4in /  1028.2hPa SSO 4.3mph /  6.9km/h 6mph /  9.7km/h 82% 0in /  0.0mm
21:59 51.3 °F /  10.7 °C 46.2 °F /  7.9 °C 30.4in /  1028.2hPa SO 3.9mph /  6.2km/h 5.9mph /  9.5km/h 82.7% 0in /  0.0mm
22:04 51.3 °F /  10.7 °C 46.2 °F /  7.9 °C 30.4in /  1028.2hPa Sur 3.6mph /  5.8km/h 6mph /  9.7km/h 83% 0in /  0.0mm
22:09 51.3 °F /  10.7 °C 46.2 °F /  7.9 °C 30.4in /  1028.1hPa SSE 3.6mph /  5.8km/h 5mph /  8km/h 83% 0in /  0.0mm
22:14 51.3 °F /  10.7 °C 46.2 °F /  7.9 °C 30.4in /  1028.1hPa SSE 3.6mph /  5.8km/h 5mph /  8km/h 83% 0in /  0.0mm
22:19 51.1 °F /  10.6 °C 46 °F /  7.8 °C 30.4in /  1028.1hPa SSE 3.2mph /  5.1km/h 5.2mph /  8.4km/h 83% 0in /  0.0mm
22:24 50.9 °F /  10.5 °C 45.7 °F /  7.6 °C 30.4in /  1028.0hPa SSE 2.9mph /  4.6km/h 6.9mph /  11.1km/h 82.2% 0in /  0.0mm
22:29 50.7 °F /  10.4 °C 45.3 °F /  7.4 °C 30.4in /  1028.0hPa SSE 3.8mph /  6.1km/h 7.4mph /  11.9km/h 82% 0in /  0.0mm
22:34 50.5 °F /  10.3 °C 45.5 °F /  7.5 °C 30.4in /  1028.0hPa SSE 4.3mph /  6.9km/h 8.1mph /  13km/h 82.6% 0in /  0.0mm
22:39 50.7 °F /  10.4 °C 45.7 °F /  7.6 °C 30.4in /  1028.0hPa SSE 4.5mph /  7.3km/h 8.5mph /  13.7km/h 83% 0in /  0.0mm
22:44 50.7 °F /  10.4 °C 45.7 °F /  7.6 °C 30.4in /  1028.0hPa SSE 4.7mph /  7.6km/h 9.2mph /  14.8km/h 83.1% 0in /  0.0mm
22:49 50.5 °F /  10.3 °C 46 °F /  7.8 °C 30.4in /  1028.0hPa SSE 5.5mph /  8.8km/h 9mph /  14.5km/h 84% 0in /  0.0mm
22:54 50.4 °F /  10.2 °C 45.9 °F /  7.7 °C 30.4in /  1027.9hPa SSE 5.9mph /  9.5km/h 9mph /  14.5km/h 84% 0in /  0.0mm
22:59 50.2 °F /  10.1 °C 45.5 °F /  7.5 °C 30.4in /  1027.9hPa Sur 5.9mph /  9.5km/h 9mph /  14.5km/h 84% 0in /  0.0mm
23:04 49.8 °F /  9.9 °C 45.1 °F /  7.3 °C 30.4in /  1027.9hPa Sur 5.9mph /  9.5km/h 9mph /  14.5km/h 84% 0in /  0.0mm
23:09 49.6 °F /  9.8 °C 44.8 °F /  7.1 °C 30.4in /  1027.9hPa Sur 5.5mph /  8.8km/h 8mph /  12.9km/h 83.5% 0in /  0.0mm
23:14 49.3 °F /  9.6 °C 44.4 °F /  6.9 °C 30.4in /  1027.9hPa Sur 5.2mph /  8.4km/h 9.2mph /  14.8km/h 83% 0in /  0.0mm
23:19 48.9 °F /  9.4 °C 44.1 °F /  6.7 °C 30.4in /  1027.9hPa SSO 5.3mph /  8.6km/h 9mph /  14.5km/h 83% 0in /  0.0mm
23:24 48.9 °F /  9.4 °C 43.9 °F /  6.6 °C 30.4in /  1027.8hPa SSO 5.4mph /  8.7km/h 8.1mph /  13km/h 83% 0in /  0.0mm
23:29 48.9 °F /  9.4 °C 43.7 °F /  6.5 °C 30.4in /  1027.8hPa SSO 5.7mph /  9.2km/h 8.1mph /  13km/h 82.1% 0in /  0.0mm
23:34 48.9 °F /  9.4 °C 43.5 °F /  6.4 °C 30.4in /  1027.8hPa SSO 5.9mph /  9.5km/h 8.1mph /  13km/h 81.7% 0in /  0.0mm
23:39 48.9 °F /  9.4 °C 43.2 °F /  6.2 °C 30.4in /  1027.7hPa SSO 5.6mph /  9km/h 8mph /  12.9km/h 80.2% 0in /  0.0mm
23:44 49.1 °F /  9.5 °C 42.6 °F /  5.9 °C 30.4in /  1027.7hPa SSO 5.4mph /  8.7km/h 7mph /  11.3km/h 78.4% 0in /  0.0mm
23:49 49.1 °F /  9.5 °C 42.3 °F /  5.7 °C 30.4in /  1027.8hPa SSO 4.7mph /  7.6km/h 7mph /  11.3km/h 77.3% 0in /  0.0mm
23:54 49.1 °F /  9.5 °C 42.3 °F /  5.7 °C 30.4in /  1027.8hPa SSO 4.3mph /  6.9km/h 7.4mph /  11.9km/h 77% 0in /  0.0mm
23:59 49.1 °F /  9.5 °C 42.1 °F /  5.6 °C 30.4in /  1027.8hPa Sur 4.6mph /  7.4km/h 7.4mph /  11.9km/h 76.5% 0in /  0.0mm
Murcia-Puente Tocinos, Espa?a
Compliments of Weather Underground - 3.25 mb

La estación de MeteoMurcia.com, publica sus datos en los siguientes proyectos:

Weather Underground PWS IMURCIAP2 Meteoclimatic www.awekas.at

W3Counter
Web Analytics